METAR rapporter

 

EKAH - Tirstrup (civ/Mi, Denmark
Afstand fra stationen: SSV 25km
Opdateret: 18/11/2019 18:20
Let regn, Regnbyger, Let Tåge, Overskyet
Let regn, Regnbyger, Let Tåge, Overskyet
 Vind fra SØ
Vind: SØ 13 km/h
Temperatur: 9°C
Kuldeindeks: 7°C
Dugpunkt: 9°C
Fugtighed: 100%
Barometer: 1004 hPa
Oversigt: Let regn, Regnbyger, Let Tåge
Skydække: Overskyet
Sigtbarhed: 3 km
Skyhøjde: Overskyet 183 m
2019/11/18 17:20 EKAH 181720Z AUTO 13007KT 090V170 2500NDV -SHRA BR OVC006/// 09/09 Q1004
EKYT - Alborg, Denmark
Afstand fra stationen: NV 91km
Opdateret: 18/11/2019 18:20
Let finregn, Let Tåge, Overskyet
Let finregn, Let Tåge, Overskyet
 Vind fra ØSØ
Vind: ØSØ 13 km/h
Temperatur: 9°C
Kuldeindeks: 7°C
Dugpunkt: 8°C
Fugtighed: 94%
Barometer: 1004 hPa
Oversigt: Let finregn, Let Tåge
Skydække: Overskyet
Sigtbarhed: 3 km
Skyhøjde: Delvist skyet 213 m
Overskyet 305 m
2019/11/18 17:20 EKYT 181720Z 11007KT 2800 -DZ BR SCT007 OVC010 09/08 Q1004
EKKA - Karup (dan-Afb), Denmark
Afstand fra stationen: V 107km
Opdateret: 18/11/2019 18:38
Støvregn, Let Tåge, Overskyet
Støvregn, Let Tåge, Overskyet
 Vind fra Ø
Vind: Ø 7 km/h
Temperatur: 9°C
Kuldeindeks: 8°C
Dugpunkt: 8°C
Fugtighed: 94%
Barometer: 1003 hPa
Oversigt: Støvregn, Let Tåge
Skydække: Overskyet
Sigtbarhed: 1 km
Skyhøjde: Overskyet 61 m
2019/11/18 17:38 EKKA 181738Z AUTO 08004KT 1100 R09R/P2000N R27L/P2000N DZ BR OVC002/// 09/08 Q1003
 
EKOD - Odense/Beldringe, Denmark
Afstand fra stationen: SSV 116km
Opdateret: 18/11/2019 17:50
Let Tåge, Mest skyet
Let Tåge, Mest skyet
 Vind fra SØ
Vind: SØ 9 km/h
Temperatur: 9°C
Kuldeindeks: 7°C
Dugpunkt: 8°C
Fugtighed: 94%
Barometer: 1003 hPa
Oversigt: Let Tåge
Skydække: Mest skyet
Sigtbarhed: 5 km
Skyhøjde: Mest skyet 183 m
Mest skyet 244 m
2019/11/18 16:50 EKOD 181650Z 13005KT 5000 BR BKN006 BKN008 09/08 Q1003
EKBI - Billund Airport, Denmark
Afstand fra stationen: SV 134km
Opdateret: 18/11/2019 18:20
Støvregn, Let Tåge, Overskyet
Støvregn, Let Tåge, Overskyet
 Vind fra Ø
Vind: Ø 4 km/h
Temperatur: 8°C
Dugpunkt: 8°C
Fugtighed: 100%
Barometer: 1002 hPa
Oversigt: Støvregn, Let Tåge
Skydække: Overskyet
Sigtbarhed: 1 km
Skyhøjde: Overskyet 91 m
2019/11/18 17:20 EKBI 181720Z AUTO 09002KT 1100 R09/P1500N R27/P1500N DZ BR OVC003/// 08/08 Q1002
EKCH - Copenhagen/Kastr, Denmark
Afstand fra stationen: SØ 148km
Opdateret: 18/11/2019 18:20
Mest skyet
Mest skyet
 Vind fra ØSØ
Vind: ØSØ 22 km/h
Temperatur: 9°C
Kuldeindeks: 6°C
Dugpunkt: 8°C
Fugtighed: 94%
Barometer: 1005 hPa
Skydække: Mest skyet
Sigtbarhed: 6 km
Skyhøjde: Delvist skyet 274 m
Mest skyet 335 m
2019/11/18 17:20 EKCH 181720Z 12012KT 6000 SCT009 BKN011 09/08 Q1005 NOSIG